< < Back
Terminal Aerodrome Forecast


Current Version              Previous Versions:   1  2  3  4  5  6  7  8  9  

Terminal Aerodrome Forecast

406
FTUS42 KCHS 291700
TAFCHS
TAF
KCHS 291733Z 2918/3018 VRB05KT P6SM SCT040 SCT060=



Latest METAR

572
SAUS80 KWBC 300500 RRA
MTRCHS
METAR KCHS 300456Z 00000KT 10SM CLR 24/20 A2995 RMK AO2 SLP142 T02440200
403330222 $


USA.gov is the U.S. government's official web portal to all federal, state and local government web resources and services.